Time;durP1;ratioP1;P1;durP2;ratioP2;P2;SDS_P1;SDS_P2;PMS_P1;PMS_P2;Temp;Humidity;BMP_temperature;BMP_pressure;BME280_temperature;BME280_humidity;BME280_pressure;Samples;Min_cycle;Max_cycle;Signal;HPM_P1;HPM_P2
2021/10/16 09:49:14;;;;;;;19.77;13.30;;;;;;;10.32;77.29;100413.75;1087565;46;20057;-76
2021/10/16 09:50:16;;;;;;;;;;;;;;;10.29;77.18;100406.84;1087772;54;20035;-79
2021/10/16 09:51:27;;;;;;;19.00;13.32;;;;;;;10.37;77.09;100414.25;1087694;54;19942;-78
2021/10/16 09:52:34;;;;;;;22.02;13.88;;;;;;;10.47;77.02;100416.94;1087973;54;20742;-80
2021/10/16 09:53:38;;;;;;;17.85;11.40;;;;;;;10.60;76.72;100416.69;1087773;54;20042;-78
2021/10/16 09:54:44;;;;;;;21.20;14.40;;;;;;;10.60;76.48;100409.53;1086963;54;20038;-77
2021/10/16 09:55:46;;;;;;;18.38;13.48;;;;;;;10.63;76.67;100410.25;1087452;54;20702;-77
2021/10/16 09:56:50;;;;;;;20.17;14.85;;;;;;;10.59;76.46;100410.53;1087564;54;20034;-77
2021/10/16 09:57:57;;;;;;;21.35;14.95;;;;;;;10.58;76.39;100416.00;1087611;54;20697;-77
2021/10/16 09:58:59;;;;;;;19.88;14.05;;;;;;;10.57;76.75;100415.16;1087675;54;20034;-77
2021/10/16 10:00:06;;;;;;;18.20;13.55;;;;;;;10.64;76.58;100406.56;1087722;54;20086;-77
2021/10/16 10:01:09;;;;;;;17.65;12.77;;;;;;;10.61;76.70;100411.25;1087595;54;20065;-77
2021/10/16 10:02:13;;;;;;;17.92;12.80;;;;;;;10.80;76.58;100406.91;1087522;54;20034;-77
2021/10/16 10:03:16;;;;;;;21.95;16.80;;;;;;;10.89;76.02;100403.41;1087728;54;20034;-78
2021/10/16 10:04:24;;;;;;;20.95;16.48;;;;;;;11.01;75.52;100405.94;1087768;54;20041;-79
2021/10/16 10:05:26;;;;;;;22.55;17.40;;;;;;;11.01;75.49;100406.81;1087671;54;21085;-80
2021/10/16 10:06:31;;;;;;;21.73;16.23;;;;;;;11.00;75.40;100412.31;1087668;54;20072;-78
2021/10/16 10:07:36;;;;;;;22.38;16.02;;;;;;;10.95;75.42;100412.72;1087754;54;20030;-78
2021/10/16 10:08:38;;;;;;;21.08;15.00;;;;;;;10.94;75.45;100405.69;1092488;39;22266;-79
2021/10/16 10:09:45;;;;;;;21.95;15.32;;;;;;;10.86;75.42;100398.34;1087697;54;20038;-78
2021/10/16 10:10:47;;;;;;;19.35;14.50;;;;;;;10.89;75.41;100400.75;1087655;54;20107;-79
2021/10/16 10:11:53;;;;;;;16.52;12.82;;;;;;;10.98;75.30;100407.06;1087678;54;20081;-79
2021/10/16 10:12:58;;;;;;;19.30;14.60;;;;;;;10.95;75.18;100407.38;1087756;54;20035;-77
2021/10/16 10:14:00;;;;;;;20.80;15.25;;;;;;;10.91;75.36;100405.94;1087572;54;20037;-79
2021/10/16 10:15:04;;;;;;;17.90;13.38;;;;;;;10.98;75.33;100395.53;1087650;54;20030;-79
2021/10/16 10:16:05;;;;;;;18.10;12.60;;;;;;;11.02;75.32;100403.16;1087832;54;20031;-77
2021/10/16 10:17:11;;;;;;;20.15;14.98;;;;;;;10.96;74.76;100403.69;1087647;54;20034;-78
2021/10/16 10:19:39;;;;;;;18.08;13.50;;;;;;;10.92;75.31;100395.09;1087307;54;20050;-77
2021/10/16 10:20:40;;;;;;;18.75;13.00;;;;;;;11.00;74.96;100402.44;1087533;54;20081;-79
2021/10/16 10:21:45;;;;;;;19.25;14.50;;;;;;;11.00;75.04;100405.13;1087672;54;20030;-77
2021/10/16 10:22:48;;;;;;;21.77;15.13;;;;;;;10.95;74.79;100402.03;1087639;54;20655;-78
2021/10/16 10:23:57;;;;;;;21.27;13.73;;;;;;;10.99;74.82;100403.41;1087671;54;20030;-77
2021/10/16 10:25:01;;;;;;;16.92;12.05;;;;;;;11.11;74.95;100405.97;1087742;54;20031;-78
2021/10/16 10:26:22;;;;;;;18.48;12.55;;;;;;;11.14;74.39;100403.84;1087451;54;20042;-79
2021/10/16 10:27:27;;;;;;;;;;;;;;;11.06;74.34;100404.56;1087791;54;20098;-78
2021/10/16 10:29:13;;;;;;;16.55;11.50;;;;;;;11.11;74.36;100396.09;1087573;54;19934;-77
2021/10/16 10:30:39;;;;;;;15.52;11.25;;;;;;;11.17;74.55;100400.06;1086456;54;20068;-78
2021/10/16 10:32:03;;;;;;;16.67;12.32;;;;;;;11.18;74.24;100399.94;1087542;54;20691;-78
2021/10/16 10:33:24;;;;;;;20.85;14.98;;;;;;;11.05;73.99;100399.34;1087401;54;20046;-77
2021/10/16 10:34:38;;;;;;;19.08;14.75;;;;;;;11.05;74.41;100397.50;1089695;39;20505;-78
2021/10/16 10:35:42;;;;;;;20.15;15.77;;;;;;;11.08;74.88;100407.09;1087281;54;20066;-77
2021/10/16 10:36:45;;;;;;;20.52;14.98;;;;;;;11.05;74.72;100407.38;1086743;54;20042;-77
2021/10/16 10:37:52;;;;;;;19.40;15.32;;;;;;;11.04;74.52;100411.03;1086927;54;20094;-77
2021/10/16 10:38:54;;;;;;;21.25;15.20;;;;;;;11.06;74.42;100403.72;1087104;54;20062;-77
2021/10/16 10:39:59;;;;;;;18.45;13.77;;;;;;;11.10;74.41;100404.28;1087959;39;20740;-78
2021/10/16 10:41:31;;;;;;;20.02;14.20;;;;;;;11.00;74.12;100397.09;1087243;54;20038;-77
2021/10/16 10:42:44;;;;;;;22.60;13.25;;;;;;;11.11;74.39;100400.63;1087469;54;20658;-77
2021/10/16 10:43:48;;;;;;;17.83;13.32;;;;;;;11.19;74.50;100404.28;1089040;39;20546;-76
2021/10/16 10:44:52;;;;;;;15.48;11.68;;;;;;;11.26;74.04;100393.84;1088047;54;20022;-80
2021/10/16 10:46:12;;;;;;;16.45;11.50;;;;;;;11.28;73.94;100394.56;1088095;54;20056;-79
2021/10/16 10:47:23;;;;;;;19.13;13.15;;;;;;;11.30;73.77;100397.97;1087899;54;20086;-79
2021/10/16 10:48:44;;;;;;;17.63;12.85;;;;;;;11.30;73.85;100395.28;1089154;39;20673;-79
2021/10/16 10:49:50;;;;;;;19.38;15.10;;;;;;;11.35;73.92;100398.38;1087847;39;20736;-79
2021/10/16 10:51:02;;;;;;;22.73;17.40;;;;;;;11.38;73.74;100398.09;1087826;54;20035;-78
2021/10/16 10:52:04;;;;;;;19.40;13.50;;;;;;;11.49;73.40;100391.72;1087691;54;20030;-77
2021/10/16 10:53:10;;;;;;;16.25;12.88;;;;;;;11.52;73.65;100398.66;1087649;54;20035;-77
2021/10/16 10:54:17;;;;;;;18.38;13.70;;;;;;;11.51;73.19;100399.66;1087625;54;20054;-76
2021/10/16 10:55:18;;;;;;;17.70;14.10;;;;;;;11.49;72.85;100398.94;1087436;54;20035;-76
2021/10/16 10:56:40;;;;;;;19.60;14.55;;;;;;;11.31;72.36;100391.63;1087589;54;20033;-77
2021/10/16 10:57:53;;;;;;;19.60;14.73;;;;;;;11.21;72.84;100393.44;1085891;54;20664;-78
2021/10/16 10:59:07;;;;;;;17.77;14.00;;;;;;;11.20;72.99;100397.94;1087631;54;20054;-81
2021/10/16 11:00:12;;;;;;;16.58;12.90;;;;;;;11.23;73.38;100392.31;1087772;54;20577;-80
2021/10/16 11:01:43;;;;;;;17.23;12.52;;;;;;;11.20;72.71;100389.06;1087788;54;20053;-77
2021/10/16 11:02:48;;;;;;;18.10;13.13;;;;;;;11.29;73.10;100380.22;1087201;54;20030;-78
2021/10/16 11:04:00;;;;;;;17.35;13.38;;;;;;;11.38;72.67;100386.56;1086728;54;20399;-78
2021/10/16 11:05:34;;;;;;;16.35;12.98;;;;;;;11.50;72.41;100387.25;1086541;54;20030;-77
2021/10/16 11:06:55;;;;;;;15.02;11.85;;;;;;;11.62;72.52;100383.41;1087756;54;20034;-83
2021/10/16 11:08:08;;;;;;;14.98;11.13;;;;;;;11.67;71.95;100375.78;1087424;54;20030;-79
2021/10/16 11:09:19;;;;;;;15.73;12.32;;;;;;;11.76;71.61;100368.72;1087949;54;20041;-77
2021/10/16 11:10:26;;;;;;;15.30;12.30;;;;;;;11.76;71.44;100375.91;1088185;54;20015;-78
2021/10/16 11:11:28;;;;;;;14.45;11.48;;;;;;;11.78;71.57;100374.78;1087066;54;20038;-80
2021/10/16 11:12:35;;;;;;;12.45;9.35;;;;;;;11.88;71.66;100368.53;1087446;54;20035;-80
2021/10/16 11:13:38;;;;;;;13.20;10.00;;;;;;;11.97;71.19;100368.56;1087511;54;20058;-81
2021/10/16 11:14:44;;;;;;;12.93;10.32;;;;;;;12.12;70.92;100363.59;1087452;54;20042;-76
2021/10/16 11:15:59;;;;;;;13.05;9.45;;;;;;;12.21;70.61;100367.19;1087376;54;20031;-80
2021/10/16 11:17:04;;;;;;;13.20;10.20;;;;;;;12.21;70.37;100361.00;1087674;54;20034;-79
2021/10/16 11:18:12;;;;;;;11.32;9.27;;;;;;;12.28;70.30;100364.78;1087272;54;20061;-78
2021/10/16 11:19:14;;;;;;;12.10;9.60;;;;;;;12.36;70.45;100366.72;1087561;54;20090;-80
2021/10/16 11:20:32;;;;;;;11.35;9.02;;;;;;;12.44;69.74;100364.13;1087953;54;20066;-80
2021/10/16 11:21:43;;;;;;;12.32;9.95;;;;;;;12.39;69.09;100355.69;1087925;54;20057;-79
2021/10/16 11:22:52;;;;;;;13.32;9.82;;;;;;;12.45;69.87;100347.06;1088157;54;20049;-82
2021/10/16 11:23:55;;;;;;;16.38;11.23;;;;;;;12.33;69.03;100344.56;1088436;46;20031;-80
2021/10/16 11:25:03;;;;;;;16.48;12.45;;;;;;;12.26;69.32;100345.31;1087687;54;20026;-81
2021/10/16 11:26:09;;;;;;;13.55;11.20;;;;;;;12.24;69.39;100342.78;1087533;54;20046;-80
2021/10/16 11:27:11;;;;;;;14.95;11.95;;;;;;;12.23;69.90;100342.94;1087840;54;20034;-80
2021/10/16 11:28:17;;;;;;;15.25;11.27;;;;;;;12.37;69.76;100336.25;1087591;54;20046;-80
2021/10/16 11:29:28;;;;;;;14.98;11.55;;;;;;;12.44;69.09;100343.50;1087904;54;20019;-80
2021/10/16 11:30:33;;;;;;;15.52;11.93;;;;;;;12.41;68.80;100334.94;1087857;54;20042;-79
2021/10/16 11:31:34;;;;;;;14.63;12.05;;;;;;;12.36;68.88;100338.06;1087867;54;20014;-79
2021/10/16 11:32:38;;;;;;;14.95;12.32;;;;;;;12.46;69.36;100335.34;1087660;54;20729;-80
2021/10/16 11:33:43;;;;;;;14.13;11.05;;;;;;;12.53;69.38;100325.69;1087699;54;20753;-79
2021/10/16 11:34:58;;;;;;;12.90;10.38;;;;;;;12.59;68.52;100326.94;1087616;54;20026;-77
2021/10/16 11:36:06;;;;;;;14.23;10.98;;;;;;;12.71;68.72;100328.38;1087498;54;20030;-78
2021/10/16 11:37:07;;;;;;;12.57;10.02;;;;;;;12.82;68.87;100324.66;1087571;54;20034;-78
2021/10/16 11:38:16;;;;;;;11.60;9.27;;;;;;;12.92;68.12;100324.56;1087501;54;20091;-80
2021/10/16 11:39:21;;;;;;;13.13;10.38;;;;;;;12.94;67.67;100326.09;1087982;54;20046;-78
2021/10/16 11:40:28;;;;;;;13.38;10.73;;;;;;;12.88;67.65;100324.03;1087366;54;20361;-76
2021/10/16 11:41:34;;;;;;;15.50;11.27;;;;;;;12.91;68.25;100314.81;1087563;54;20034;-80
2021/10/16 11:42:36;;;;;;;13.60;9.85;;;;;;;13.01;68.19;100328.19;1087922;54;20034;-78
2021/10/16 11:43:42;;;;;;;12.82;9.73;;;;;;;13.09;67.94;100322.88;1087601;54;20031;-79
2021/10/16 11:44:44;;;;;;;13.05;10.48;;;;;;;13.11;67.70;100320.91;1087525;54;20039;-77
2021/10/16 11:45:50;;;;;;;14.48;11.65;;;;;;;13.08;67.36;100319.34;1087443;54;20036;-77
2021/10/16 11:47:01;;;;;;;13.18;10.45;;;;;;;13.15;67.31;100321.44;1087488;54;20062;-78
2021/10/16 11:48:07;;;;;;;12.88;9.98;;;;;;;13.20;67.31;100314.59;1087711;54;20030;-78
2021/10/16 11:49:09;;;;;;;12.27;9.35;;;;;;;13.24;67.58;100318.63;1088172;54;20026;-76
2021/10/16 11:50:17;;;;;;;13.98;10.43;;;;;;;13.31;67.32;100309.97;1087984;54;20031;-77
2021/10/16 11:51:30;;;;;;;14.93;10.60;;;;;;;13.25;66.88;100322.19;1088027;54;20041;-77
2021/10/16 11:52:32;;;;;;;11.35;9.18;;;;;;;13.29;67.06;100314.66;1091004;39;20567;-77
2021/10/16 11:53:40;;;;;;;10.73;8.57;;;;;;;13.37;67.12;100312.03;1088139;54;20076;-78
2021/10/16 11:54:42;;;;;;;12.13;9.30;;;;;;;13.38;66.92;100311.03;1097433;39;20190;-77
2021/10/16 11:55:49;;;;;;;9.57;7.95;;;;;;;13.50;66.66;100307.13;1088109;54;20025;-77
2021/10/16 11:56:54;;;;;;;9.30;7.53;;;;;;;13.60;66.25;100308.88;1088158;54;20039;-77
2021/10/16 11:58:05;;;;;;;9.88;8.00;;;;;;;13.65;65.78;100306.53;1087903;54;20835;-76
2021/10/16 11:59:07;;;;;;;11.23;8.40;;;;;;;13.74;66.09;100308.28;1088031;54;20037;-78
2021/10/16 12:00:29;;;;;;;12.15;9.65;;;;;;;13.68;65.80;100303.53;1088127;54;20034;-78
2021/10/16 12:01:45;;;;;;;11.80;9.18;;;;;;;13.71;65.86;100309.44;1088079;54;20034;-78
2021/10/16 12:02:47;;;;;;;11.55;8.75;;;;;;;13.75;66.08;100301.03;1088160;54;20718;-77
2021/10/16 12:03:51;;;;;;;12.27;9.20;;;;;;;13.74;66.11;100300.22;1087985;54;20729;-78
2021/10/16 12:05:07;;;;;;;12.25;9.43;;;;;;;13.80;65.29;100291.50;1093371;39;20610;-77
2021/10/16 12:06:13;;;;;;;12.80;9.63;;;;;;;13.78;65.48;100295.34;1088078;54;20030;-76
2021/10/16 12:07:17;;;;;;;13.00;9.45;;;;;;;13.83;65.27;100293.88;1088120;54;20034;-77
2021/10/16 12:08:23;;;;;;;12.90;10.35;;;;;;;13.71;65.64;100293.31;1088112;54;20046;-77
2021/10/16 12:09:25;;;;;;;12.55;8.82;;;;;;;13.86;65.66;100288.19;1087979;54;20061;-77
2021/10/16 12:10:34;;;;;;;12.05;9.43;;;;;;;13.84;65.21;100290.19;1088092;54;20773;-79
2021/10/16 12:11:38;;;;;;;14.85;11.45;;;;;;;13.73;65.47;100285.94;1088100;54;20026;-77
2021/10/16 12:12:55;;;;;;;13.13;10.63;;;;;;;13.70;65.58;100288.94;1088036;54;20019;-77
2021/10/16 12:14:00;;;;;;;12.73;10.10;;;;;;;13.76;65.31;100289.28;1088701;46;20019;-76
2021/10/16 12:15:02;;;;;;;12.98;10.55;;;;;;;13.66;65.20;100287.56;1087951;54;20024;-76
2021/10/16 12:16:15;;;;;;;13.98;12.13;;;;;;;13.53;65.00;100290.69;1088097;54;20022;-77
2021/10/16 12:17:16;;;;;;;14.07;11.18;;;;;;;13.45;65.74;100284.44;1088124;54;20019;-76
2021/10/16 12:18:26;;;;;;;12.82;10.80;;;;;;;13.49;65.96;100283.97;1088106;54;20026;-77
2021/10/16 12:19:27;;;;;;;11.02;9.77;;;;;;;13.56;65.64;100276.94;1088107;54;20034;-78
2021/10/16 12:20:32;;;;;;;11.63;10.02;;;;;;;13.49;65.73;100278.59;1087986;54;20085;-76
2021/10/16 12:21:39;;;;;;;13.13;11.13;;;;;;;13.55;65.68;100275.25;1087975;54;20058;-78
2021/10/16 12:23:00;;;;;;;13.82;10.07;;;;;;;13.56;65.29;100274.25;1087996;54;20046;-77
2021/10/16 12:24:12;;;;;;;12.32;10.27;;;;;;;13.61;65.33;100267.56;1088086;54;20026;-77
2021/10/16 12:25:14;;;;;;;12.65;9.95;;;;;;;13.56;65.82;100271.56;1088036;54;20038;-77
2021/10/16 12:26:24;;;;;;;12.23;9.52;;;;;;;13.60;65.43;100271.28;1089271;39;20613;-77
2021/10/16 12:27:29;;;;;;;12.65;10.23;;;;;;;13.58;65.65;100274.09;1099290;31;20758;-78
2021/10/16 12:28:44;;;;;;;14.02;10.65;;;;;;;13.56;65.61;100273.41;1089694;39;20646;-77
2021/10/16 12:29:46;;;;;;;11.27;9.05;;;;;;;13.56;65.82;100260.84;1106189;39;20645;-77
2021/10/16 12:31:08;;;;;;;11.95;10.18;;;;;;;13.49;65.73;100267.84;1088022;54;20034;-78
2021/10/16 12:32:11;;;;;;;13.55;9.27;;;;;;;13.52;65.65;100264.81;1094090;39;20721;-78
2021/10/16 12:33:15;;;;;;;10.18;8.45;;;;;;;13.60;65.54;100265.91;1087957;54;20042;-77
2021/10/16 12:34:21;;;;;;;10.65;8.85;;;;;;;13.61;65.60;100267.56;1088084;54;20022;-77
2021/10/16 12:35:23;;;;;;;10.10;8.55;;;;;;;13.65;65.81;100263.56;1088008;54;20062;-77
2021/10/16 12:36:29;;;;;;;10.70;8.90;;;;;;;13.63;65.83;100260.19;1088082;54;20039;-76
2021/10/16 12:37:33;;;;;;;9.70;8.43;;;;;;;13.63;65.59;100255.66;1088002;54;20039;-76
2021/10/16 12:38:50;;;;;;;11.65;8.93;;;;;;;13.59;65.65;100256.16;1088016;54;20026;-77
2021/10/16 12:39:55;;;;;;;12.93;8.30;;;;;;;13.59;65.74;100253.47;1088071;54;20037;-77
2021/10/16 12:40:56;;;;;;;9.90;8.13;;;;;;;13.62;65.62;100255.81;1087958;54;20030;-77
2021/10/16 12:42:09;;;;;;;10.63;8.35;;;;;;;13.69;65.57;100255.03;1088041;54;20082;-76
2021/10/16 12:43:22;;;;;;;11.27;8.60;;;;;;;13.66;65.22;100257.19;1089730;39;20717;-77
2021/10/16 12:44:29;;;;;;;9.82;7.65;;;;;;;13.76;65.71;100251.69;1087980;54;20061;-76
2021/10/16 12:45:38;;;;;;;11.40;8.10;;;;;;;13.82;65.45;100253.75;1090898;39;20668;-76
2021/10/16 12:46:42;;;;;;;9.80;7.25;;;;;;;13.92;65.30;100249.09;1088018;54;20662;-77
2021/10/16 12:47:46;;;;;;;11.48;7.82;;;;;;;13.97;64.98;100246.75;1088064;54;20041;-76
2021/10/16 12:48:51;;;;;;;10.15;8.38;;;;;;;13.95;64.93;100250.59;1087987;54;20034;-77
2021/10/16 12:50:03;;;;;;;10.57;7.72;;;;;;;13.99;65.08;100246.56;1087972;54;20690;-77
2021/10/16 12:51:05;;;;;;;10.52;8.23;;;;;;;14.02;65.05;100246.25;1087277;54;20025;-77
2021/10/16 12:52:29;;;;;;;11.55;8.20;;;;;;;13.95;64.68;100247.91;1087929;54;20061;-78
2021/10/16 12:54:00;;;;;;;10.52;8.57;;;;;;;13.90;64.73;100245.72;1088044;54;20069;-77
2021/10/16 12:55:21;;;;;;;11.63;8.98;;;;;;;13.86;65.21;100250.56;1088089;54;20022;-77
2021/10/16 12:56:24;;;;;;;9.15;7.53;;;;;;;13.91;65.07;100236.66;1087843;54;20022;-78
2021/10/16 12:57:30;;;;;;;9.45;7.75;;;;;;;13.94;65.01;100236.31;1088000;54;20037;-78
2021/10/16 12:58:31;;;;;;;10.25;7.25;;;;;;;14.01;64.74;100244.56;1087912;54;20041;-77
2021/10/16 12:59:36;;;;;;;9.43;7.30;;;;;;;14.01;64.96;100232.00;1088025;54;20034;-78
2021/10/16 13:00:44;;;;;;;9.88;7.90;;;;;;;14.08;64.88;100237.53;1087915;54;20035;-78
2021/10/16 13:01:45;;;;;;;9.60;7.07;;;;;;;14.09;64.56;100228.47;1087970;54;20033;-76
2021/10/16 13:02:50;;;;;;;10.00;7.70;;;;;;;14.16;64.65;100234.91;1087904;54;20035;-77
2021/10/16 13:03:51;;;;;;;9.57;6.78;;;;;;;14.20;64.53;100230.84;1088034;54;20034;-77
2021/10/16 13:04:56;;;;;;;9.73;7.72;;;;;;;14.23;64.29;100228.84;1087930;54;20345;-77
2021/10/16 13:05:58;;;;;;;9.15;7.00;;;;;;;14.23;64.23;100228.84;1090078;39;20629;-78
2021/10/16 13:07:02;;;;;;;11.32;7.63;;;;;;;14.28;64.25;100231.88;1088026;54;20030;-77
2021/10/16 13:08:08;;;;;;;10.68;8.73;;;;;;;14.15;63.91;100222.47;1087852;54;20058;-77
2021/10/16 13:09:13;;;;;;;9.75;8.18;;;;;;;14.19;64.28;100223.78;1089579;39;20649;-77
2021/10/16 13:10:18;;;;;;;10.13;7.88;;;;;;;14.20;64.07;100225.47;1087955;54;20046;-79
2021/10/16 13:11:22;;;;;;;11.23;9.15;;;;;;;14.22;64.34;100227.16;1087860;54;20042;-77
2021/10/16 13:12:24;;;;;;;9.30;7.70;;;;;;;14.28;64.40;100232.75;1087877;54;20015;-77
2021/10/16 13:13:28;;;;;;;8.75;7.15;;;;;;;14.33;64.09;100227.69;1087975;54;20022;-77
2021/10/16 13:14:30;;;;;;;9.18;6.45;;;;;;;14.37;63.96;100228.19;1087835;54;20757;-77
2021/10/16 13:15:35;;;;;;;8.68;6.88;;;;;;;14.34;64.00;100225.88;1087985;54;20030;-79
2021/10/16 13:16:38;;;;;;;8.20;6.70;;;;;;;14.35;63.99;100223.00;1087995;54;20031;-78
2021/10/16 13:17:42;;;;;;;10.25;7.25;;;;;;;14.40;63.70;100233.25;1088023;54;20030;-79
2021/10/16 13:18:44;;;;;;;8.23;6.47;;;;;;;14.48;63.55;100227.06;1088019;39;20551;-79
2021/10/16 13:19:49;;;;;;;8.43;7.07;;;;;;;14.51;63.51;100226.72;1087942;54;20037;-79
2021/10/16 13:20:50;;;;;;;8.60;7.57;;;;;;;14.55;63.29;100217.31;1094615;39;21298;-77
2021/10/16 13:21:54;;;;;;;10.60;7.97;;;;;;;14.55;63.51;100227.25;1087958;54;20030;-78
2021/10/16 13:22:57;;;;;;;9.77;8.10;;;;;;;14.46;63.40;100219.13;1087955;54;20042;-79
2021/10/16 13:24:01;;;;;;;9.60;8.57;;;;;;;14.39;63.53;100223.50;1087947;54;20031;-78
2021/10/16 13:25:11;;;;;;;10.85;8.35;;;;;;;14.40;63.78;100225.19;1087922;54;20042;-78
2021/10/16 13:26:12;;;;;;;10.43;8.35;;;;;;;14.33;64.00;100218.78;1087720;54;20847;-79
2021/10/16 13:27:16;;;;;;;8.80;6.93;;;;;;;14.35;63.93;100220.31;1087996;54;20122;-80
2021/10/16 13:28:18;;;;;;;8.70;6.88;;;;;;;14.40;63.80;100227.88;1088001;54;20046;-79
2021/10/16 13:29:22;;;;;;;9.50;7.22;;;;;;;14.43;63.72;100218.63;1087987;54;20041;-76
2021/10/16 13:30:24;;;;;;;8.52;6.75;;;;;;;14.45;64.06;100211.25;1089213;39;20673;-79
2021/10/16 13:31:28;;;;;;;9.18;7.78;;;;;;;14.41;63.72;100218.81;1087883;54;20045;-78
2021/10/16 13:32:30;;;;;;;9.60;7.18;;;;;;;14.43;63.74;100214.09;1087780;54;20042;-78
2021/10/16 13:33:34;;;;;;;8.82;7.40;;;;;;;14.37;64.06;100213.94;1087888;54;20034;-80
2021/10/16 13:34:36;;;;;;;8.82;7.20;;;;;;;14.34;63.80;100221.31;1087986;54;20042;-79
2021/10/16 13:35:41;;;;;;;9.48;7.50;;;;;;;14.33;63.96;100218.78;1087842;54;20031;-79
2021/10/16 13:36:43;;;;;;;9.77;7.18;;;;;;;14.33;64.09;100218.78;1087887;54;20034;-79
2021/10/16 13:37:47;;;;;;;7.88;6.47;;;;;;;14.38;64.06;100211.06;1088143;54;20031;-79
2021/10/16 13:38:49;;;;;;;8.65;7.07;;;;;;;14.33;64.03;100214.25;1088242;54;20033;-79
2021/10/16 13:39:55;;;;;;;11.85;8.25;;;;;;;14.30;64.06;100219.13;1088296;54;20033;-78
2021/10/16 13:40:59;;;;;;;8.27;6.97;;;;;;;14.38;63.93;100216.44;1088137;54;20034;-78
2021/10/16 13:42:03;;;;;;;9.48;7.20;;;;;;;14.40;63.77;100216.28;1088285;54;20087;-78
2021/10/16 13:43:05;;;;;;;7.68;6.38;;;;;;;14.40;64.11;100211.75;1088260;54;20053;-77
2021/10/16 13:44:10;;;;;;;8.00;6.00;;;;;;;14.44;63.83;100214.94;1088146;54;20025;-79
2021/10/16 13:45:17;;;;;;;8.10;6.18;;;;;;;14.48;63.52;100221.69;1088253;54;20086;-80
2021/10/16 13:46:22;;;;;;;9.00;6.70;;;;;;;14.48;63.68;100217.13;1089087;46;20026;-77
2021/10/16 13:47:25;;;;;;;10.30;6.78;;;;;;;14.47;63.74;100222.69;1088259;54;20037;-77
2021/10/16 13:48:29;;;;;;;9.77;7.03;;;;;;;14.43;63.99;100222.19;1088338;54;20030;-78
2021/10/16 13:49:31;;;;;;;9.73;6.70;;;;;;;14.43;64.09;100219.50;1088126;54;20045;-79
2021/10/16 13:50:35;;;;;;;10.65;7.60;;;;;;;14.41;64.09;100220.63;1088195;54;20026;-78
2021/10/16 13:51:39;;;;;;;12.48;9.27;;;;;;;14.40;64.21;100219.81;1087997;54;20025;-78
2021/10/16 13:52:41;;;;;;;10.85;9.45;;;;;;;14.32;64.28;100223.31;1088207;54;20015;-79
2021/10/16 13:53:46;;;;;;;19.30;14.63;;;;;;;14.35;64.44;100214.09;1088276;54;20041;-78
2021/10/16 13:54:48;;;;;;;15.95;10.73;;;;;;;14.35;64.50;100217.63;1088236;54;20043;-78
2021/10/16 13:55:52;;;;;;;15.25;9.13;;;;;;;14.29;64.50;100214.75;1088101;54;20793;-79
2021/10/16 13:56:56;;;;;;;10.23;8.68;;;;;;;14.26;64.33;100213.22;1088178;54;20031;-79
2021/10/16 13:58:01;;;;;;;10.00;7.50;;;;;;;14.28;64.35;100215.75;1088275;54;20659;-78
2021/10/16 13:59:03;;;;;;;10.73;7.88;;;;;;;14.28;64.41;100219.28;1088154;54;20046;-78
2021/10/16 14:00:09;;;;;;;9.48;6.90;;;;;;;14.30;64.31;100216.44;1088232;54;20031;-79
2021/10/16 14:01:10;;;;;;;8.55;5.97;;;;;;;14.33;64.23;100213.41;1088066;54;20034;-78
2021/10/16 14:02:14;;;;;;;10.80;6.88;;;;;;;14.34;64.26;100215.09;1088285;54;20037;-79
2021/10/16 14:03:16;;;;;;;8.73;7.03;;;;;;;14.39;64.54;100214.59;1088334;54;20034;-81
2021/10/16 14:04:21;;;;;;;8.60;6.78;;;;;;;14.35;64.54;100212.25;1088318;54;20035;-80
2021/10/16 14:05:24;;;;;;;8.15;6.35;;;;;;;14.41;64.07;100210.75;1088322;54;20054;-78
2021/10/16 14:06:28;;;;;;;8.10;6.47;;;;;;;14.42;64.18;100209.75;1088234;54;20025;-78
2021/10/16 14:07:30;;;;;;;8.35;6.50;;;;;;;14.39;64.03;100209.22;1088193;54;20023;-80
2021/10/16 14:08:36;;;;;;;9.60;6.70;;;;;;;14.35;64.38;100204.16;1088299;54;20034;-79
2021/10/16 14:09:40;;;;;;;9.32;6.75;;;;;;;14.41;64.45;100204.50;1088252;54;20034;-78
2021/10/16 14:10:42;;;;;;;9.73;7.20;;;;;;;14.32;64.48;100203.66;1088173;54;20022;-80
2021/10/16 14:11:46;;;;;;;8.90;7.00;;;;;;;14.30;64.59;100208.38;1088105;54;20690;-78
2021/10/16 14:12:51;;;;;;;8.32;7.15;;;;;;;14.31;64.69;100210.88;1088086;54;20031;-79
2021/10/16 14:13:55;;;;;;;9.18;6.93;;;;;;;14.29;64.88;100204.00;1088304;54;20051;-78
2021/10/16 14:14:57;;;;;;;8.40;6.32;;;;;;;14.32;64.54;100215.25;1088257;54;20065;-79
2021/10/16 14:16:01;;;;;;;8.07;6.40;;;;;;;14.35;64.52;100206.03;1088240;54;20030;-79
2021/10/16 14:17:02;;;;;;;8.90;6.78;;;;;;;14.33;64.54;100197.28;1088406;54;20022;-80
2021/10/16 14:18:06;;;;;;;8.77;7.22;;;;;;;14.32;64.80;100200.97;1088455;54;20038;-82
2021/10/16 14:19:09;;;;;;;8.07;6.45;;;;;;;14.31;64.57;100204.66;1088399;54;20018;-82
2021/10/16 14:20:14;;;;;;;8.60;6.57;;;;;;;14.34;64.57;100201.66;1088467;54;20845;-81
2021/10/16 14:21:26;;;;;;;7.80;5.82;;;;;;;14.36;64.63;100202.31;1088327;54;20031;-82
2021/10/16 14:22:27;;;;;;;7.07;5.50;;;;;;;14.42;64.50;100195.44;1089820;46;20026;-81
2021/10/16 14:23:31;;;;;;;8.50;6.55;;;;;;;14.37;64.49;100193.25;1088362;54;20738;-81
2021/10/16 14:24:35;;;;;;;8.05;5.88;;;;;;;14.41;64.30;100199.97;1088230;54;20031;-82
2021/10/16 14:25:37;;;;;;;6.97;5.90;;;;;;;14.39;64.59;100196.59;1088312;54;20685;-82
2021/10/16 14:26:42;;;;;;;7.40;5.60;;;;;;;14.44;64.46;100196.97;1088459;54;20029;-84
2021/10/16 14:27:46;;;;;;;8.45;6.22;;;;;;;14.46;64.07;100208.38;1088395;54;20015;-82
2021/10/16 14:28:53;;;;;;;7.22;5.85;;;;;;;14.46;64.22;100197.63;1088373;54;20701;-81
2021/10/16 14:29:57;;;;;;;7.50;6.35;;;;;;;14.49;64.11;100196.47;1088401;54;20041;-80
2021/10/16 14:30:59;;;;;;;7.75;6.20;;;;;;;14.51;64.17;100208.75;1088299;54;20023;-82
2021/10/16 14:32:03;;;;;;;8.13;5.65;;;;;;;14.51;64.45;100200.66;1088337;54;20019;-82
2021/10/16 14:33:07;;;;;;;6.90;5.25;;;;;;;14.56;64.08;100193.94;1091149;39;20618;-81
2021/10/16 14:34:09;;;;;;;7.63;5.70;;;;;;;14.57;63.96;100196.47;1088368;54;20022;-82
2021/10/16 14:35:14;;;;;;;7.70;5.88;;;;;;;14.58;63.87;100200.84;1088346;54;20094;-82
2021/10/16 14:36:15;;;;;;;8.38;5.75;;;;;;;14.60;64.04;100198.81;1088466;47;20039;-80
2021/10/16 14:37:19;;;;;;;8.60;6.30;;;;;;;14.58;64.03;100190.09;1088428;54;20015;-82
2021/10/16 14:38:21;;;;;;;7.63;5.68;;;;;;;14.57;64.35;100195.63;1088367;54;20721;-82
2021/10/16 14:39:26;;;;;;;7.78;5.90;;;;;;;14.64;64.30;100193.97;1088344;54;20103;-81
2021/10/16 14:40:28;;;;;;;6.93;4.97;;;;;;;14.66;63.90;100195.50;1088274;54;20341;-81
2021/10/16 14:41:32;;;;;;;9.35;5.63;;;;;;;14.71;63.77;100200.38;1088186;54;20070;-81
2021/10/16 14:42:34;;;;;;;7.45;6.20;;;;;;;14.70;63.74;100187.94;1088296;54;20055;-83
2021/10/16 14:43:38;;;;;;;7.05;4.97;;;;;;;14.70;63.79;100187.94;1088328;54;20025;-81
2021/10/16 14:44:45;;;;;;;7.25;5.43;;;;;;;14.67;63.83;100185.56;1088410;54;20782;-84
2021/10/16 14:45:46;;;;;;;9.80;6.00;;;;;;;14.64;64.03;100184.03;1092854;39;20508;-82
2021/10/16 14:46:51;;;;;;;7.72;5.90;;;;;;;14.58;63.91;100187.41;1088384;54;20050;-82
2021/10/16 14:47:52;;;;;;;7.40;5.65;;;;;;;14.62;64.15;100183.34;1088193;54;20057;-81
2021/10/16 14:48:56;;;;;;;7.72;6.07;;;;;;;14.66;63.94;100181.16;1088413;54;20026;-81
2021/10/16 14:49:58;;;;;;;6.50;4.57;;;;;;;14.69;63.92;100180.03;1088403;54;20025;-81
2021/10/16 14:51:02;;;;;;;7.00;5.47;;;;;;;14.68;63.76;100181.88;1088263;54;20015;-81
2021/10/16 14:52:06;;;;;;;7.10;5.25;;;;;;;14.71;63.92;100176.16;1096425;39;20803;-82
2021/10/16 14:53:11;;;;;;;7.22;5.68;;;;;;;14.75;63.72;100184.72;1088247;54;20725;-84
2021/10/16 14:54:12;;;;;;;6.30;4.82;;;;;;;14.79;63.93;100183.38;1088292;54;20038;-80
2021/10/16 14:55:16;;;;;;;6.93;4.47;;;;;;;14.80;63.90;100172.44;1088332;54;20034;-82